KICL/ICL METAR and TAF weather

Enter ICAO airport designator
Station Type Date Time Source
KICL METAR 2019/04/22 18:15 UTC NOAA

KICL 221815Z AUTO 30013KT 10SM OVC017 16/12 A2996 RMK AO2


Station Type Date Time Source
KICL Decoded METAR 2019/04/22 18:15 UTC NOAA

Clarinda, IA, United States (KICL) 40-43N 095-02W
Apr 22, 2019 - 02:15 PM EDT / 2019.04.22 1815 UTC
Wind: from the WNW (300 degrees) at 15 MPH (13 KT):0
Visibility: 10 mile(s):0
Sky conditions: overcast
Temperature: 60 F (16 C)
Dew Point: 53 F (12 C)
Relative Humidity: 77%
Pressure (altimeter): 29.96 in. Hg (1014 hPa)
ob: KICL 221815Z AUTO 30013KT 10SM OVC017 16/12 A2996 RMK AO2
cycle: 18

Station Type Date Time Source
KICL TAF UTC NOAA

Error!

Example: see airport list